Terminal Aerodrome Forecast
Issued by NWS

Home | Current Version | Previous Version | Text Only | Print | Product List | Glossary On
Versions: 1 2 3 4 5 6 7 8 9 10 11 12 13 14 15 16 17
000
FTUS42 KTBW 230538
TAFPIE
TAF
KPIE 230538Z 2306/2406 09007KT P6SM VCSH SCT030 OVC100
     FM230800 11008KT P6SM VCSH SCT015 BKN025 OVC100
     FM231200 16010KT 5SM SHRA VCTS SCT015 BKN025CB OVC070
     FM231600 23008KT 6SM SHRA VCTS SCT020CB BKN035
     FM232000 01007KT 6SM SHRA VCTS SCT020CB BKN035
     FM240200 02007KT P6SM VCSH BKN020 OVC035=

USA.gov is the U.S. government's official web portal to all federal, state and local government web resources and services.